Flight Track Log - Related Links

Times and Time Zones

All times are in EDT time to prevent confusion due to time zone crossing. See the SWA580 flight status page for this flight to view local times or setup timezone preferences in your user account.

Time Position Orientation Groundspeed Altitude Reporting Facility
EDT Latitude Longitude Course Direction KTS MPH feet Rate Location/Type
Fri 05:12:38 PM 38.7264 -90.5025 223° Southwest 240 276 8,200  Level Kansas City Center
Fri 05:13:40 PM 38.6619 -90.5342 201° Southwest 250 288 11,600 2,952 Climbing Kansas City Center
Fri 05:14:42 PM 38.5867 -90.5719 201° Southwest 285 328 14,300 2,903 Climbing Kansas City Center
Fri 05:15:44 PM 38.4853 -90.6225 201° Southwest 323 372 17,600 3,048 Climbing Kansas City Center
Fri 05:16:00 PM 38.2539 -90.6795 218° Southwest  Level FlightAware Approximate
Fri 05:16:46 PM 38.3911 -90.6681 201° Southwest 345 397 20,600  Level Kansas City Center
Fri 05:17:48 PM 38.2958 -90.7158 201° Southwest 358 412 23,400 2,419 Climbing Kansas City Center
Fri 05:18:50 PM 38.1969 -90.7642 201° Southwest 369 425 25,600 1,984 Climbing Kansas City Center
Fri 05:19:52 PM 38.0953 -90.8097 199° South 379 436 27,500 1,742 Climbing Kansas City Center
Fri 05:20:54 PM 37.9861 -90.8511 197° South 398 458 29,200 2,032 Climbing Kansas City Center
Fri 05:21:56 PM 37.8525 -90.9039 197° South 415 478 31,700 2,177 Climbing Kansas City Center
Fri 05:22:58 PM 37.7422 -90.9481 198° South 416 479 33,700 1,887 Climbing Kansas City Center
Fri 05:24:00 PM 37.6342 -90.9903 197° South 411 473 35,600 2,129 Climbing Kansas City Center
Fri 05:25:02 PM 37.5208 -91.0375 198° South 404 465 38,100 1,645 Climbing Kansas City Center
Fri 05:26:04 PM 37.4200 -91.0806 199° South 387 445 39,000 726 Climbing Kansas City Center
Fri 05:27:06 PM 37.3144 -91.1244 198° South 392 451 39,600 435 Climbing Kansas City Center
Fri 05:28:08 PM 37.2047 -91.1681 198° South 405 466 39,900 194 Climbing Kansas City Center
Fri 05:29:10 PM 37.0919 -91.2167 199° South 419 482 40,000 63 Climbing Kansas City Center
Fri 05:29:44 PM 37.0206 -91.2428 196° South 419 482 40,000  Level Memphis Center
Fri 05:30:44 PM 36.9097 -91.2908 199° South 426 490 40,000  Level Memphis Center
Fri 05:31:44 PM 36.7947 -91.3389 199° South 426 490 40,000  Level Memphis Center
Fri 05:32:44 PM 36.6817 -91.3867 199° South 426 490 40,000  Level Memphis Center
Fri 05:33:44 PM 36.5647 -91.4317 197° South 431 496 40,000  Level Memphis Center
Fri 05:34:44 PM 36.4497 -91.4817 199° South 431 496 40,000  Level Memphis Center
Fri 05:35:44 PM 36.3367 -91.5267 198° South 437 503 40,000  Level Memphis Center
Fri 05:36:44 PM 36.2217 -91.5739 198° South 437 503 40,000  Level Memphis Center
Fri 05:37:44 PM 36.1106 -91.6158 197° South 432 497 40,000  Level Memphis Center
Fri 05:38:44 PM 36.0017 -91.6603 198° South 421 484 40,000  Level Memphis Center
Fri 05:39:44 PM 35.8950 -91.7022 198° South 414 476 40,000  Level Memphis Center
Fri 05:40:44 PM 35.7881 -91.7467 199° South 409 471 40,000  Level Memphis Center
Fri 05:41:44 PM 35.6772 -91.7881 197° South 414 476 40,000  Level Memphis Center
Fri 05:42:44 PM 35.5703 -91.8322 199° South 414 476 40,000  Level Memphis Center
Fri 05:43:44 PM 35.4592 -91.8736 197° South 414 476 40,000  Level Memphis Center
Fri 05:44:44 PM 35.3503 -91.9175 198° South 414 476 40,000  Level Memphis Center
Fri 05:45:44 PM 35.2369 -91.9611 197° South 419 482 40,000  Level Memphis Center
Fri 05:46:44 PM 35.1281 -92.0022 197° South 419 482 40,000  Level Memphis Center
Fri 05:47:44 PM 35.0169 -92.0458 198° South 426 490 40,000  Level Memphis Center
Fri 05:48:44 PM 34.9014 -92.0942 199° South 426 490 40,000  Level Memphis Center
Fri 05:49:44 PM 34.7881 -92.1372 197° South 426 490 40,000  Level Memphis Center
Fri 05:50:44 PM 34.6750 -92.1778 196° South 426 490 40,000  Level Memphis Center
Fri 05:51:44 PM 34.5536 -92.2031 190° South 432 497 40,000  Level Memphis Center
Fri 05:52:44 PM 34.4322 -92.2256 189° South 438 504 40,000  Level Memphis Center
Fri 05:53:44 PM 34.3150 -92.2483 189° South 438 504 40,000  Level Memphis Center
Fri 05:54:44 PM 34.1936 -92.2731 190° South 438 504 40,000  Level Memphis Center
Fri 05:55:44 PM 34.0617 -92.2953 188° South 438 504 40,000  Level Memphis Center
Fri 05:57:51 PM 33.8164 -92.3436 189° South 428 493 40,000  Level Fort Worth Center
Fri 05:58:51 PM 33.6961 -92.3631 188° South 433 498 40,000  Level Fort Worth Center
Fri 05:59:51 PM 33.5761 -92.3875 190° South 433 498 40,000  Level Fort Worth Center
Fri 06:00:51 PM 33.4622 -92.4064 188° South 433 498 40,000  Level Fort Worth Center
Fri 06:01:51 PM 33.3419 -92.4283 189° South 433 498 40,000  Level Fort Worth Center
Fri 06:02:52 PM 33.2217 -92.4497 188° South 433 498 40,000  Level Fort Worth Center
Fri 06:03:51 PM 33.1058 -92.4736 190° South 433 498 40,000  Level Fort Worth Center
Fri 06:04:51 PM 32.9897 -92.4950 189° South 433 498 40,000  Level Fort Worth Center
Fri 06:05:52 PM 32.8736 -92.5136 188° South 428 493 40,000  Level Fort Worth Center
Fri 06:06:51 PM 32.7597 -92.5347 189° South 423 487 40,000  Level Fort Worth Center
Fri 06:09:06 PM 32.5089 -92.5814 189° South 420 483 40,000  Level Houston Center
Fri 06:10:08 PM 32.3914 -92.6019 188° South 424 488 40,000  Level Houston Center
Fri 06:11:10 PM 32.2764 -92.6244 189° South 420 483 40,000  Level Houston Center
Fri 06:12:12 PM 32.1594 -92.6439 188° South 421 484 40,000  Level Houston Center
Fri 06:13:14 PM 32.0217 -92.6689 189° South 419 482 40,000  Level Houston Center
Fri 06:14:16 PM 31.9286 -92.7333 210° Southwest 402 463 40,000  Level Houston Center
Fri 06:15:18 PM 31.8547 -92.8247 226° Southwest 387 445 40,000  Level Houston Center
Fri 06:16:21 PM 31.7831 -92.9186 228° Southwest 387 445 40,000  Level Houston Center
Fri 06:17:23 PM 31.7089 -93.0128 227° Southwest 390 449 40,000  Level Houston Center
Fri 06:18:25 PM 31.6208 -93.1242 227° Southwest 390 449 40,000  Level Houston Center
Fri 06:19:27 PM 31.5461 -93.2178 227° Southwest 392 451 40,000  Level Houston Center
Fri 06:20:29 PM 31.4761 -93.3069 227° Southwest 397 457 40,000  Level Houston Center
Fri 06:21:31 PM 31.3869 -93.4206 227° Southwest 396 456 40,000  Level Houston Center
Fri 06:22:33 PM 31.3117 -93.5125 226° Southwest 395 455 40,000  Level Houston Center
Fri 06:23:35 PM 31.2481 -93.5936 227° Southwest 393 452 40,000  Level Houston Center
Fri 06:24:37 PM 31.1586 -93.7042 227° Southwest 390 449 40,000 -288 Level Houston Center
Fri 06:25:40 PM 31.0847 -93.7967 227° Southwest 391 450 39,400 -1,104 Descending Houston Center
Fri 06:26:42 PM 31.0125 -93.8875 227° Southwest 385 443 37,700 -2,129 Descending Houston Center
Fri 06:27:44 PM 30.9403 -93.9753 226° Southwest 379 436 35,000 -2,758 Descending Houston Center
Fri 06:28:46 PM 30.8667 -94.0656 226° Southwest 385 443 32,000 -2,855 Descending Houston Center
Fri 06:29:48 PM 30.7756 -94.1758 226° Southwest 393 452 29,100 -2,516 Descending Houston Center
Fri 06:30:50 PM 30.7033 -94.2650 227° Southwest 386 444 26,800 -2,177 Descending Houston Center
Fri 06:31:52 PM 30.6339 -94.3494 226° Southwest 368 423 24,600 -2,313 Descending Houston Center
Fri 06:32:13 PM 30.6019 -94.3867 225° Southwest 351 404 23,600 -2,308 Descending Houston Center
Fri 06:32:44 PM 30.5703 -94.4272 228° Southwest 348 400 22,600 -2,087 Descending Houston Center
Fri 06:33:45 PM 30.5044 -94.5061 226° Southwest 340 391 20,400 -1,970 Descending Houston Center
Fri 06:34:58 PM 30.4403 -94.6025 232° Southwest 335 386 18,200 -2,098 Descending Houston Center
Fri 06:35:48 PM 30.3869 -94.6839 233° Southwest 337 388 16,100 -2,304 Descending Houston Center
Fri 06:37:03 PM 30.3244 -94.7833 234° Southwest 328 377 13,400 -2,066 Descending Houston Center
Fri 06:37:50 PM 30.2772 -94.8528 232° Southwest 318 366 11,900 -1,548 Descending Houston Center
Fri 06:38:05 PM 30.2711 -94.8642 238° Southwest 319 367 11,800 -779 Descending Houston Center
Fri 06:39:07 PM 30.2169 -94.9486 233° Southwest 326 375 10,900 -953 Descending Houston Center
Fri 06:39:52 PM 30.1656 -95.0264 233° Southwest 337 388 10,100 -871 Descending Houston Center
Fri 06:40:09 PM 30.1619 -95.0353 245° Southwest 335 386 10,000 -97 Descending Houston Center
Fri 06:40:54 PM 30.0897 -95.0914 214° Southwest 358 412 10,000  Level Houston Center
Fri 06:41:11 PM 30.0642 -95.1017 199° South 346 398 10,000  Level Houston Center
Fri 06:41:55 PM 29.9947 -95.1322 201° Southwest 343 395 10,000  Level Houston Center
Fri 06:42:13 PM 29.9742 -95.1400 198° South 343 395 10,000 -984 Level Houston Center
Fri 06:42:56 PM 29.9158 -95.1658 201° Southwest 298 343 9,000 -1,238 Descending Houston Center
Fri 06:43:16 PM 29.8972 -95.1733 199° South 301 346 8,700 -1,258 Descending Houston Center
Fri 06:43:58 PM 29.8350 -95.2000 200° South 304 350 7,700 -1,180 Descending Houston Center
Fri 06:44:17 PM 29.8178 -95.2075 201° Southwest 304 350 7,500 -545 Descending Houston Center
Fri 06:44:53 PM 29.7664 -95.2300 201° Southwest 270 311 7,200 -484 Descending Houston Center
Fri 06:45:19 PM 29.7464 -95.2378 199° South 281 323 7,000 -787 Descending Houston Center
Fri 06:45:54 PM 29.6978 -95.2142 157° South 265 305 6,400 -857 Descending Houston Center
Fri 06:46:22 PM 29.6747 -95.1889 136° Southeast 262 302 6,100 -581 Descending Houston Center
Fri 06:46:56 PM 29.6442 -95.1583 139° Southeast 234 269 5,800 -484 Descending Houston Center
Fri 06:47:24 PM 29.6333 -95.1456 134° Southeast 247 284 5,600 -985 Descending Houston Center
Fri 06:48:03 PM 29.5953 -95.1064 138° Southeast 224 258 4,700 -1,355 Descending Houston Center
Fri 06:48:26 PM 29.5775 -95.0853 134° Southeast 230 265 4,200 -689 Descending Houston Center
Fri 06:49:04 PM 29.5450 -95.0622 148° Southeast 212 244 4,000 -387 Descending Houston Center
Fri 06:49:28 PM 29.5250 -95.0617 179° South 221 254 3,800 -764 Descending Houston Center
Fri 06:49:59 PM 29.4928 -95.0661 187° South 201 231 3,300 -774 Descending Houston Center
Fri 06:50:30 PM 29.4806 -95.0833 231° Southwest 202 232 3,000 -295 Descending Houston Center
Fri 06:51:00 PM 29.4986 -95.1064 312° West 157 181 3,000  Level Houston Center
Fri 06:51:32 PM 29.5111 -95.1200 317° Northwest 173 199 3,000 -387 Level Houston Center
Fri 06:52:02 PM 29.5294 -95.1433 312° West 159 183 2,600 -677 Descending Houston Center
Fri 06:52:34 PM 29.5428 -95.1581 316° Northwest 166 191 2,300 -492 Descending Houston Center
Fri 06:53:03 PM 29.5603 -95.1806 312° West 160 184 2,100 -484 Descending Houston Center
Fri 06:53:36 PM 29.5744 -95.1953 318° Northwest 162 186 1,800 -787 Descending Houston Center
Fri 06:54:04 PM 29.5908 -95.2153 313° West 150 173 1,300 -774 Descending Houston Center
Fri 06:54:38 PM 29.6025 -95.2286 315° West 154 177 1,000 -618 Descending Houston Center
Fri 06:55:12 PM 29.6167 -95.2458 313° West 123 142 600 -677 Descending Houston Center
Fri 06:55:40 PM 29.6258 -95.2572 313° West 137 158 300 -643 Descending Houston Center

Login

Don't have an account? Register now (free) for customized features, flight alerts, and more!